sensor_id;sensor_type;location;lat;lon;timestamp;temperature;humidity
51567;DHT22;37657;53.182;5.638;2023-01-15T00:01:25;8.20;99.90
51567;DHT22;37657;53.182;5.638;2023-01-15T00:03:52;8.20;99.90
51567;DHT22;37657;53.182;5.638;2023-01-15T00:06:19;8.20;99.90
51567;DHT22;37657;53.182;5.638;2023-01-15T00:08:45;8.20;99.90
51567;DHT22;37657;53.182;5.638;2023-01-15T00:11:11;8.20;99.90
51567;DHT22;37657;53.182;5.638;2023-01-15T00:13:37;8.20;99.90
51567;DHT22;37657;53.182;5.638;2023-01-15T00:16:04;8.20;99.90
51567;DHT22;37657;53.182;5.638;2023-01-15T00:18:30;8.20;99.90
51567;DHT22;37657;53.182;5.638;2023-01-15T00:21:00;8.20;99.90
51567;DHT22;37657;53.182;5.638;2023-01-15T00:23:27;8.10;99.90
51567;DHT22;37657;53.182;5.638;2023-01-15T00:26:16;8.20;99.90
51567;DHT22;37657;53.182;5.638;2023-01-15T00:29:00;8.30;99.90
51567;DHT22;37657;53.182;5.638;2023-01-15T00:31:26;8.20;99.90
51567;DHT22;37657;53.182;5.638;2023-01-15T00:33:52;8.20;99.90
51567;DHT22;37657;53.182;5.638;2023-01-15T00:36:18;8.20;99.90
51567;DHT22;37657;53.182;5.638;2023-01-15T00:38:43;8.20;99.90
51567;DHT22;37657;53.182;5.638;2023-01-15T00:41:09;8.20;99.90
51567;DHT22;37657;53.182;5.638;2023-01-15T00:43:34;8.20;99.90
51567;DHT22;37657;53.182;5.638;2023-01-15T00:46:00;8.10;99.90
51567;DHT22;37657;53.182;5.638;2023-01-15T00:48:26;8.10;99.90
51567;DHT22;37657;53.182;5.638;2023-01-15T00:50:51;8.10;99.90
51567;DHT22;37657;53.182;5.638;2023-01-15T00:53:17;8.10;99.90
51567;DHT22;37657;53.182;5.638;2023-01-15T00:55:42;8.10;99.90
51567;DHT22;37657;53.182;5.638;2023-01-15T00:58:08;8.00;99.90
51567;DHT22;37657;53.182;5.638;2023-01-15T01:00:34;8.00;99.90
51567;DHT22;37657;53.182;5.638;2023-01-15T01:02:59;7.90;99.90
51567;DHT22;37657;53.182;5.638;2023-01-15T01:05:25;8.00;99.90
51567;DHT22;37657;53.182;5.638;2023-01-15T01:07:51;7.90;99.90
51567;DHT22;37657;53.182;5.638;2023-01-15T01:10:17;7.90;99.90
51567;DHT22;37657;53.182;5.638;2023-01-15T01:12:42;7.90;99.90
51567;DHT22;37657;53.182;5.638;2023-01-15T01:15:08;7.90;99.90
51567;DHT22;37657;53.182;5.638;2023-01-15T01:17:36;7.90;99.90
51567;DHT22;37657;53.182;5.638;2023-01-15T01:20:03;7.90;99.90
51567;DHT22;37657;53.182;5.638;2023-01-15T01:22:29;7.90;99.90
51567;DHT22;37657;53.182;5.638;2023-01-15T01:24:57;7.90;99.90
51567;DHT22;37657;53.182;5.638;2023-01-15T01:27:23;7.80;99.90
51567;DHT22;37657;53.182;5.638;2023-01-15T01:29:48;7.80;99.90
51567;DHT22;37657;53.182;5.638;2023-01-15T01:32:14;7.80;99.90
51567;DHT22;37657;53.182;5.638;2023-01-15T01:34:40;7.80;99.90
51567;DHT22;37657;53.182;5.638;2023-01-15T01:37:05;7.80;99.90
51567;DHT22;37657;53.182;5.638;2023-01-15T01:39:31;7.80;99.90
51567;DHT22;37657;53.182;5.638;2023-01-15T01:41:56;7.70;99.90
51567;DHT22;37657;53.182;5.638;2023-01-15T01:46:57;7.70;99.90
51567;DHT22;37657;53.182;5.638;2023-01-15T01:49:23;7.70;99.90
51567;DHT22;37657;53.182;5.638;2023-01-15T01:51:55;7.70;99.90
51567;DHT22;37657;53.182;5.638;2023-01-15T01:54:23;7.80;99.90
51567;DHT22;37657;53.182;5.638;2023-01-15T01:56:49;7.70;99.90
51567;DHT22;37657;53.182;5.638;2023-01-15T01:59:17;7.80;99.90
51567;DHT22;37657;53.182;5.638;2023-01-15T02:01:44;7.70;99.90
51567;DHT22;37657;53.182;5.638;2023-01-15T02:04:13;7.90;99.90
51567;DHT22;37657;53.182;5.638;2023-01-15T02:06:40;7.90;99.90
51567;DHT22;37657;53.182;5.638;2023-01-15T02:09:06;7.90;99.90
51567;DHT22;37657;53.182;5.638;2023-01-15T02:11:33;8.00;99.90
51567;DHT22;37657;53.182;5.638;2023-01-15T02:27:42;7.90;99.90
51567;DHT22;37657;53.182;5.638;2023-01-15T02:32:45;7.90;99.90
51567;DHT22;37657;53.182;5.638;2023-01-15T02:35:21;7.90;99.90
51567;DHT22;37657;53.182;5.638;2023-01-15T02:37:54;7.90;99.90
51567;DHT22;37657;53.182;5.638;2023-01-15T02:40:22;8.00;99.90
51567;DHT22;37657;53.182;5.638;2023-01-15T02:42:49;8.10;99.90
51567;DHT22;37657;53.182;5.638;2023-01-15T02:45:19;8.00;99.90
51567;DHT22;37657;53.182;5.638;2023-01-15T02:47:50;7.90;99.90
51567;DHT22;37657;53.182;5.638;2023-01-15T02:50:20;7.90;99.90
51567;DHT22;37657;53.182;5.638;2023-01-15T02:52:51;7.80;99.90
51567;DHT22;37657;53.182;5.638;2023-01-15T02:55:27;7.80;99.90
51567;DHT22;37657;53.182;5.638;2023-01-15T02:57:55;7.70;99.90
51567;DHT22;37657;53.182;5.638;2023-01-15T03:00:25;7.70;99.90
51567;DHT22;37657;53.182;5.638;2023-01-15T03:03:02;7.70;99.90
51567;DHT22;37657;53.182;5.638;2023-01-15T03:05:47;7.70;99.90
51567;DHT22;37657;53.182;5.638;2023-01-15T03:08:17;7.70;99.90
51567;DHT22;37657;53.182;5.638;2023-01-15T03:10:56;7.70;99.90
51567;DHT22;37657;53.182;5.638;2023-01-15T03:13:30;7.60;99.90
51567;DHT22;37657;53.182;5.638;2023-01-15T03:16:27;7.60;99.90
51567;DHT22;37657;53.182;5.638;2023-01-15T03:21:30;7.50;99.90
51567;DHT22;37657;53.182;5.638;2023-01-15T03:24:00;7.60;99.90
51567;DHT22;37657;53.182;5.638;2023-01-15T03:26:27;7.60;99.90
51567;DHT22;37657;53.182;5.638;2023-01-15T03:28:52;7.60;99.90
51567;DHT22;37657;53.182;5.638;2023-01-15T03:31:18;7.60;99.90
51567;DHT22;37657;53.182;5.638;2023-01-15T03:33:44;7.60;99.90
51567;DHT22;37657;53.182;5.638;2023-01-15T03:36:10;7.50;99.90
51567;DHT22;37657;53.182;5.638;2023-01-15T03:38:37;7.60;99.90
51567;DHT22;37657;53.182;5.638;2023-01-15T03:41:26;7.50;99.90
51567;DHT22;37657;53.182;5.638;2023-01-15T03:44:10;7.60;99.90
51567;DHT22;37657;53.182;5.638;2023-01-15T03:46:40;7.50;99.90
51567;DHT22;37657;53.182;5.638;2023-01-15T03:54:53;7.50;99.90
51567;DHT22;37657;53.182;5.638;2023-01-15T04:00:27;7.40;99.90
51567;DHT22;37657;53.182;5.638;2023-01-15T04:02:56;7.40;99.90
51567;DHT22;37657;53.182;5.638;2023-01-15T04:05:23;7.30;99.90
51567;DHT22;37657;53.182;5.638;2023-01-15T04:07:50;7.30;99.90
51567;DHT22;37657;53.182;5.638;2023-01-15T04:10:17;7.30;99.90
51567;DHT22;37657;53.182;5.638;2023-01-15T04:12:43;7.20;99.90
51567;DHT22;37657;53.182;5.638;2023-01-15T04:15:10;7.20;99.90
51567;DHT22;37657;53.182;5.638;2023-01-15T04:17:36;7.10;99.90
51567;DHT22;37657;53.182;5.638;2023-01-15T04:20:01;7.10;99.90
51567;DHT22;37657;53.182;5.638;2023-01-15T04:22:27;7.10;99.90
51567;DHT22;37657;53.182;5.638;2023-01-15T04:24:52;7.10;99.90
51567;DHT22;37657;53.182;5.638;2023-01-15T04:27:19;7.10;99.90
51567;DHT22;37657;53.182;5.638;2023-01-15T04:29:45;7.10;99.90
51567;DHT22;37657;53.182;5.638;2023-01-15T04:32:10;7.10;99.90
51567;DHT22;37657;53.182;5.638;2023-01-15T04:34:36;7.10;99.90
51567;DHT22;37657;53.182;5.638;2023-01-15T04:37:01;7.10;99.90
51567;DHT22;37657;53.182;5.638;2023-01-15T04:39:27;7.00;99.90
51567;DHT22;37657;53.182;5.638;2023-01-15T04:41:52;7.10;99.90
51567;DHT22;37657;53.182;5.638;2023-01-15T04:44:37;7.10;99.90
51567;DHT22;37657;53.182;5.638;2023-01-15T04:47:03;7.10;99.90
51567;DHT22;37657;53.182;5.638;2023-01-15T04:49:28;7.00;99.90
51567;DHT22;37657;53.182;5.638;2023-01-15T04:51:54;7.00;99.90
51567;DHT22;37657;53.182;5.638;2023-01-15T04:54:20;7.00;99.90
51567;DHT22;37657;53.182;5.638;2023-01-15T04:56:48;7.00;99.90
51567;DHT22;37657;53.182;5.638;2023-01-15T04:59:15;7.10;99.90
51567;DHT22;37657;53.182;5.638;2023-01-15T05:01:41;7.10;99.90
51567;DHT22;37657;53.182;5.638;2023-01-15T05:04:07;7.00;99.90
51567;DHT22;37657;53.182;5.638;2023-01-15T05:06:33;7.00;99.90
51567;DHT22;37657;53.182;5.638;2023-01-15T05:09:00;7.00;99.90
51567;DHT22;37657;53.182;5.638;2023-01-15T05:11:27;7.00;99.90
51567;DHT22;37657;53.182;5.638;2023-01-15T05:13:54;7.00;99.90
51567;DHT22;37657;53.182;5.638;2023-01-15T05:16:22;6.90;99.90
51567;DHT22;37657;53.182;5.638;2023-01-15T05:18:49;6.90;99.90
51567;DHT22;37657;53.182;5.638;2023-01-15T05:21:21;6.90;99.90
51567;DHT22;37657;53.182;5.638;2023-01-15T05:23:49;6.90;99.90
51567;DHT22;37657;53.182;5.638;2023-01-15T05:26:15;6.90;99.90
51567;DHT22;37657;53.182;5.638;2023-01-15T05:28:41;6.90;99.90
51567;DHT22;37657;53.182;5.638;2023-01-15T05:31:12;6.90;99.90
51567;DHT22;37657;53.182;5.638;2023-01-15T05:33:38;7.00;99.90
51567;DHT22;37657;53.182;5.638;2023-01-15T05:36:10;7.00;99.90
51567;DHT22;37657;53.182;5.638;2023-01-15T05:38:36;7.00;99.90
51567;DHT22;37657;53.182;5.638;2023-01-15T05:41:03;6.90;99.90
51567;DHT22;37657;53.182;5.638;2023-01-15T05:43:49;6.90;99.90
51567;DHT22;37657;53.182;5.638;2023-01-15T05:46:15;6.90;99.90
51567;DHT22;37657;53.182;5.638;2023-01-15T05:48:40;6.90;99.90
51567;DHT22;37657;53.182;5.638;2023-01-15T05:51:06;6.80;99.90
51567;DHT22;37657;53.182;5.638;2023-01-15T05:53:32;6.80;99.90
51567;DHT22;37657;53.182;5.638;2023-01-15T05:56:03;6.80;99.90
51567;DHT22;37657;53.182;5.638;2023-01-15T05:58:29;6.80;99.90
51567;DHT22;37657;53.182;5.638;2023-01-15T06:00:54;6.80;99.90
51567;DHT22;37657;53.182;5.638;2023-01-15T06:03:21;6.80;99.90
51567;DHT22;37657;53.182;5.638;2023-01-15T06:05:51;6.70;99.90
51567;DHT22;37657;53.182;5.638;2023-01-15T06:08:16;6.80;99.90
51567;DHT22;37657;53.182;5.638;2023-01-15T06:10:46;6.80;99.90
51567;DHT22;37657;53.182;5.638;2023-01-15T06:13:12;6.80;99.90
51567;DHT22;37657;53.182;5.638;2023-01-15T06:15:39;6.80;99.90
51567;DHT22;37657;53.182;5.638;2023-01-15T06:18:04;6.90;99.90
51567;DHT22;37657;53.182;5.638;2023-01-15T06:20:30;6.90;99.90
51567;DHT22;37657;53.182;5.638;2023-01-15T06:22:55;6.90;99.90
51567;DHT22;37657;53.182;5.638;2023-01-15T06:25:21;6.80;99.90
51567;DHT22;37657;53.182;5.638;2023-01-15T06:27:47;6.90;99.90
51567;DHT22;37657;53.182;5.638;2023-01-15T06:30:14;6.90;99.90
51567;DHT22;37657;53.182;5.638;2023-01-15T06:32:40;6.90;99.90
51567;DHT22;37657;53.182;5.638;2023-01-15T06:35:06;6.90;99.90
51567;DHT22;37657;53.182;5.638;2023-01-15T06:37:32;6.90;99.90
51567;DHT22;37657;53.182;5.638;2023-01-15T06:39:57;6.90;99.90
51567;DHT22;37657;53.182;5.638;2023-01-15T06:42:23;6.80;99.90
51567;DHT22;37657;53.182;5.638;2023-01-15T06:45:11;6.90;99.90
51567;DHT22;37657;53.182;5.638;2023-01-15T06:47:56;6.80;99.90
51567;DHT22;37657;53.182;5.638;2023-01-15T06:50:22;6.90;99.90
51567;DHT22;37657;53.182;5.638;2023-01-15T06:52:48;6.80;99.90
51567;DHT22;37657;53.182;5.638;2023-01-15T06:55:13;6.90;99.90
51567;DHT22;37657;53.182;5.638;2023-01-15T06:57:39;7.00;99.90
51567;DHT22;37657;53.182;5.638;2023-01-15T07:00:07;7.00;99.90
51567;DHT22;37657;53.182;5.638;2023-01-15T07:02:32;7.10;99.90
51567;DHT22;37657;53.182;5.638;2023-01-15T07:04:58;7.10;99.90
51567;DHT22;37657;53.182;5.638;2023-01-15T07:07:24;7.20;99.90
51567;DHT22;37657;53.182;5.638;2023-01-15T07:09:51;7.10;99.90
51567;DHT22;37657;53.182;5.638;2023-01-15T07:12:17;7.10;99.90
51567;DHT22;37657;53.182;5.638;2023-01-15T07:14:43;7.00;99.90
51567;DHT22;37657;53.182;5.638;2023-01-15T07:17:09;7.10;99.90
51567;DHT22;37657;53.182;5.638;2023-01-15T07:19:35;7.00;99.90
51567;DHT22;37657;53.182;5.638;2023-01-15T07:22:01;7.00;99.90
51567;DHT22;37657;53.182;5.638;2023-01-15T07:24:26;7.10;99.90
51567;DHT22;37657;53.182;5.638;2023-01-15T07:26:52;7.10;99.90
51567;DHT22;37657;53.182;5.638;2023-01-15T07:29:17;7.10;99.90
51567;DHT22;37657;53.182;5.638;2023-01-15T07:31:43;7.10;99.90
51567;DHT22;37657;53.182;5.638;2023-01-15T07:34:09;7.10;99.90
51567;DHT22;37657;53.182;5.638;2023-01-15T07:36:35;7.10;99.90
51567;DHT22;37657;53.182;5.638;2023-01-15T07:39:03;7.20;99.90
51567;DHT22;37657;53.182;5.638;2023-01-15T07:41:29;7.20;99.90
51567;DHT22;37657;53.182;5.638;2023-01-15T07:44:13;7.20;99.90
51567;DHT22;37657;53.182;5.638;2023-01-15T07:46:57;7.20;99.90
51567;DHT22;37657;53.182;5.638;2023-01-15T07:49:42;7.30;99.90
51567;DHT22;37657;53.182;5.638;2023-01-15T07:52:18;7.20;99.90
51567;DHT22;37657;53.182;5.638;2023-01-15T07:54:46;7.20;99.90
51567;DHT22;37657;53.182;5.638;2023-01-15T07:57:13;7.10;99.90
51567;DHT22;37657;53.182;5.638;2023-01-15T07:59:39;7.10;99.90
51567;DHT22;37657;53.182;5.638;2023-01-15T08:02:05;7.10;99.90
51567;DHT22;37657;53.182;5.638;2023-01-15T08:04:31;7.10;99.90
51567;DHT22;37657;53.182;5.638;2023-01-15T08:06:59;7.10;99.90
51567;DHT22;37657;53.182;5.638;2023-01-15T08:09:25;7.10;99.90
51567;DHT22;37657;53.182;5.638;2023-01-15T08:11:51;7.00;99.90
51567;DHT22;37657;53.182;5.638;2023-01-15T08:14:35;7.00;99.90
51567;DHT22;37657;53.182;5.638;2023-01-15T08:17:19;7.00;99.90
51567;DHT22;37657;53.182;5.638;2023-01-15T08:19:45;7.00;99.90
51567;DHT22;37657;53.182;5.638;2023-01-15T08:22:10;7.00;99.90
51567;DHT22;37657;53.182;5.638;2023-01-15T08:24:36;7.10;99.90
51567;DHT22;37657;53.182;5.638;2023-01-15T08:27:03;7.20;99.90
51567;DHT22;37657;53.182;5.638;2023-01-15T08:29:28;7.20;99.90
51567;DHT22;37657;53.182;5.638;2023-01-15T08:31:54;7.20;99.90
51567;DHT22;37657;53.182;5.638;2023-01-15T08:34:20;7.10;99.90
51567;DHT22;37657;53.182;5.638;2023-01-15T08:36:45;7.20;99.90
51567;DHT22;37657;53.182;5.638;2023-01-15T08:39:11;7.20;99.90
51567;DHT22;37657;53.182;5.638;2023-01-15T08:41:37;7.20;99.90
51567;DHT22;37657;53.182;5.638;2023-01-15T08:44:02;7.30;99.90
51567;DHT22;37657;53.182;5.638;2023-01-15T08:46:28;7.30;99.90
51567;DHT22;37657;53.182;5.638;2023-01-15T08:48:54;7.40;99.90
51567;DHT22;37657;53.182;5.638;2023-01-15T08:51:19;7.40;99.90
51567;DHT22;37657;53.182;5.638;2023-01-15T08:53:45;7.60;99.90
51567;DHT22;37657;53.182;5.638;2023-01-15T08:56:15;7.70;99.90
51567;DHT22;37657;53.182;5.638;2023-01-15T08:58:41;7.70;99.90
51567;DHT22;37657;53.182;5.638;2023-01-15T09:01:09;7.70;99.90
51567;DHT22;37657;53.182;5.638;2023-01-15T09:03:35;7.70;99.90
51567;DHT22;37657;53.182;5.638;2023-01-15T09:06:01;7.90;99.90
51567;DHT22;37657;53.182;5.638;2023-01-15T09:08:28;7.90;99.90
51567;DHT22;37657;53.182;5.638;2023-01-15T09:10:58;7.90;99.90
51567;DHT22;37657;53.182;5.638;2023-01-15T09:13:24;7.90;99.90
51567;DHT22;37657;53.182;5.638;2023-01-15T09:15:50;7.90;99.90
51567;DHT22;37657;53.182;5.638;2023-01-15T09:18:16;7.90;99.90
51567;DHT22;37657;53.182;5.638;2023-01-15T09:20:47;7.90;99.90
51567;DHT22;37657;53.182;5.638;2023-01-15T09:23:13;8.00;99.90
51567;DHT22;37657;53.182;5.638;2023-01-15T09:25:38;8.10;99.90
51567;DHT22;37657;53.182;5.638;2023-01-15T09:28:04;8.10;99.90
51567;DHT22;37657;53.182;5.638;2023-01-15T09:30:29;8.00;99.90
51567;DHT22;37657;53.182;5.638;2023-01-15T09:32:55;8.00;99.90
51567;DHT22;37657;53.182;5.638;2023-01-15T09:35:21;8.00;99.90
51567;DHT22;37657;53.182;5.638;2023-01-15T09:37:53;8.00;99.90
51567;DHT22;37657;53.182;5.638;2023-01-15T09:40:49;8.00;99.90
51567;DHT22;37657;53.182;5.638;2023-01-15T09:43:37;8.00;99.90
51567;DHT22;37657;53.182;5.638;2023-01-15T09:46:19;7.90;99.90
51567;DHT22;37657;53.182;5.638;2023-01-15T09:49:04;8.00;99.90
51567;DHT22;37657;53.182;5.638;2023-01-15T09:54:35;8.20;99.90
51567;DHT22;37657;53.182;5.638;2023-01-15T09:57:12;8.40;99.90
51567;DHT22;37657;53.182;5.638;2023-01-15T09:59:48;8.40;99.90
51567;DHT22;37657;53.182;5.638;2023-01-15T10:02:38;8.40;99.90
51567;DHT22;37657;53.182;5.638;2023-01-15T10:05:25;8.50;99.90
51567;DHT22;37657;53.182;5.638;2023-01-15T10:08:03;8.40;99.90
51567;DHT22;37657;53.182;5.638;2023-01-15T10:10:44;8.30;99.90
51567;DHT22;37657;53.182;5.638;2023-01-15T10:16:05;8.20;99.90
51567;DHT22;37657;53.182;5.638;2023-01-15T10:18:31;8.20;99.90
51567;DHT22;37657;53.182;5.638;2023-01-15T10:21:03;8.30;99.90
51567;DHT22;37657;53.182;5.638;2023-01-15T10:24:05;8.30;99.90
51567;DHT22;37657;53.182;5.638;2023-01-15T10:32:02;8.50;99.90
51567;DHT22;37657;53.182;5.638;2023-01-15T10:45:59;8.60;99.90
51567;DHT22;37657;53.182;5.638;2023-01-15T10:50:53;8.60;99.90
51567;DHT22;37657;53.182;5.638;2023-01-15T10:56:32;8.50;99.90
51567;DHT22;37657;53.182;5.638;2023-01-15T10:59:14;8.50;99.90
51567;DHT22;37657;53.182;5.638;2023-01-15T11:01:41;8.50;99.90
51567;DHT22;37657;53.182;5.638;2023-01-15T11:04:09;8.50;99.90
51567;DHT22;37657;53.182;5.638;2023-01-15T11:06:37;8.50;99.90
51567;DHT22;37657;53.182;5.638;2023-01-15T11:09:03;8.50;99.90
51567;DHT22;37657;53.182;5.638;2023-01-15T11:11:39;8.50;99.90
51567;DHT22;37657;53.182;5.638;2023-01-15T11:14:41;8.40;99.90
51567;DHT22;37657;53.182;5.638;2023-01-15T11:17:35;8.30;99.90
51567;DHT22;37657;53.182;5.638;2023-01-15T11:20:43;8.20;99.90
51567;DHT22;37657;53.182;5.638;2023-01-15T11:23:11;8.20;99.90
51567;DHT22;37657;53.182;5.638;2023-01-15T11:25:46;8.10;99.90
51567;DHT22;37657;53.182;5.638;2023-01-15T11:28:12;8.10;99.90
51567;DHT22;37657;53.182;5.638;2023-01-15T11:30:40;8.20;99.90
51567;DHT22;37657;53.182;5.638;2023-01-15T11:33:21;8.20;99.90
51567;DHT22;37657;53.182;5.638;2023-01-15T11:35:51;8.10;99.90
51567;DHT22;37657;53.182;5.638;2023-01-15T11:38:21;8.00;99.90
51567;DHT22;37657;53.182;5.638;2023-01-15T11:40:56;8.00;99.90
51567;DHT22;37657;53.182;5.638;2023-01-15T11:43:25;7.90;99.90
51567;DHT22;37657;53.182;5.638;2023-01-15T11:46:31;7.80;99.90
51567;DHT22;37657;53.182;5.638;2023-01-15T11:49:19;7.80;99.90
51567;DHT22;37657;53.182;5.638;2023-01-15T11:52:07;7.90;99.90
51567;DHT22;37657;53.182;5.638;2023-01-15T11:54:37;7.80;99.90
51567;DHT22;37657;53.182;5.638;2023-01-15T11:57:03;7.90;99.90
51567;DHT22;37657;53.182;5.638;2023-01-15T11:59:31;7.90;99.90
51567;DHT22;37657;53.182;5.638;2023-01-15T12:02:03;7.90;99.90
51567;DHT22;37657;53.182;5.638;2023-01-15T12:04:38;7.90;99.90
51567;DHT22;37657;53.182;5.638;2023-01-15T12:07:06;7.90;99.90
51567;DHT22;37657;53.182;5.638;2023-01-15T12:12:20;7.90;99.90
51567;DHT22;37657;53.182;5.638;2023-01-15T12:18:13;8.00;99.90
51567;DHT22;37657;53.182;5.638;2023-01-15T12:26:26;7.90;99.90
51567;DHT22;37657;53.182;5.638;2023-01-15T12:31:57;7.90;99.90
51567;DHT22;37657;53.182;5.638;2023-01-15T12:37:13;7.80;99.90
51567;DHT22;37657;53.182;5.638;2023-01-15T12:39:56;7.80;99.90
51567;DHT22;37657;53.182;5.638;2023-01-15T12:42:24;7.90;99.90
51567;DHT22;37657;53.182;5.638;2023-01-15T12:45:15;7.80;99.90
51567;DHT22;37657;53.182;5.638;2023-01-15T12:48:26;7.90;99.90
51567;DHT22;37657;53.182;5.638;2023-01-15T12:50:56;8.00;99.90
51567;DHT22;37657;53.182;5.638;2023-01-15T12:53:24;8.10;99.90
51567;DHT22;37657;53.182;5.638;2023-01-15T12:59:10;7.60;99.90
51567;DHT22;37657;53.182;5.638;2023-01-15T13:01:33;7.30;99.90
51567;DHT22;37657;53.182;5.638;2023-01-15T13:06:55;7.00;99.90
51567;DHT22;37657;53.182;5.638;2023-01-15T13:09:40;7.00;99.90
51567;DHT22;37657;53.182;5.638;2023-01-15T13:12:13;6.90;99.90
51567;DHT22;37657;53.182;5.638;2023-01-15T13:14:40;7.00;99.90
51567;DHT22;37657;53.182;5.638;2023-01-15T13:20:04;7.10;99.90
51567;DHT22;37657;53.182;5.638;2023-01-15T13:23:43;7.20;99.90
51567;DHT22;37657;53.182;5.638;2023-01-15T13:26:06;7.30;99.90
51567;DHT22;37657;53.182;5.638;2023-01-15T13:34:50;7.80;99.90
51567;DHT22;37657;53.182;5.638;2023-01-15T13:37:29;7.80;99.90
51567;DHT22;37657;53.182;5.638;2023-01-15T13:40:21;7.90;99.90
51567;DHT22;37657;53.182;5.638;2023-01-15T13:42:48;7.90;99.90
51567;DHT22;37657;53.182;5.638;2023-01-15T13:47:47;7.90;99.90
51567;DHT22;37657;53.182;5.638;2023-01-15T13:50:24;7.90;99.90
51567;DHT22;37657;53.182;5.638;2023-01-15T13:53:02;8.00;99.90
51567;DHT22;37657;53.182;5.638;2023-01-15T13:55:33;7.90;99.90
51567;DHT22;37657;53.182;5.638;2023-01-15T13:57:59;8.00;99.90
51567;DHT22;37657;53.182;5.638;2023-01-15T14:00:35;8.00;99.90
51567;DHT22;37657;53.182;5.638;2023-01-15T14:03:30;8.00;99.90
51567;DHT22;37657;53.182;5.638;2023-01-15T14:05:58;8.10;99.90
51567;DHT22;37657;53.182;5.638;2023-01-15T14:08:37;8.10;99.90
51567;DHT22;37657;53.182;5.638;2023-01-15T14:11:03;8.10;99.90
51567;DHT22;37657;53.182;5.638;2023-01-15T14:13:39;8.20;99.90
51567;DHT22;37657;53.182;5.638;2023-01-15T14:16:34;8.20;99.90
51567;DHT22;37657;53.182;5.638;2023-01-15T14:19:20;8.00;99.90
51567;DHT22;37657;53.182;5.638;2023-01-15T14:22:12;8.00;99.90
51567;DHT22;37657;53.182;5.638;2023-01-15T14:27:43;8.00;99.90
51567;DHT22;37657;53.182;5.638;2023-01-15T14:30:35;8.00;99.90
51567;DHT22;37657;53.182;5.638;2023-01-15T14:35:44;8.00;99.90
51567;DHT22;37657;53.182;5.638;2023-01-15T14:38:20;7.90;99.90
51567;DHT22;37657;53.182;5.638;2023-01-15T14:40:57;7.90;99.90
51567;DHT22;37657;53.182;5.638;2023-01-15T14:43:26;7.90;99.90
51567;DHT22;37657;53.182;5.638;2023-01-15T14:45:53;7.90;99.90
51567;DHT22;37657;53.182;5.638;2023-01-15T14:51:15;7.90;99.90
51567;DHT22;37657;53.182;5.638;2023-01-15T14:54:06;7.90;99.90
51567;DHT22;37657;53.182;5.638;2023-01-15T14:56:36;7.80;99.90
51567;DHT22;37657;53.182;5.638;2023-01-15T15:01:56;7.70;99.90
51567;DHT22;37657;53.182;5.638;2023-01-15T15:04:36;7.60;99.90
51567;DHT22;37657;53.182;5.638;2023-01-15T15:07:18;7.70;99.90
51567;DHT22;37657;53.182;5.638;2023-01-15T15:15:15;7.60;99.90
51567;DHT22;37657;53.182;5.638;2023-01-15T15:23:49;7.50;99.90
51567;DHT22;37657;53.182;5.638;2023-01-15T15:31:28;7.40;99.90
51567;DHT22;37657;53.182;5.638;2023-01-15T15:33:56;7.30;99.90
51567;DHT22;37657;53.182;5.638;2023-01-15T15:36:25;7.30;99.90
51567;DHT22;37657;53.182;5.638;2023-01-15T15:38:59;7.30;99.90
51567;DHT22;37657;53.182;5.638;2023-01-15T15:41:30;7.30;99.90
51567;DHT22;37657;53.182;5.638;2023-01-15T15:47:44;7.30;99.90
51567;DHT22;37657;53.182;5.638;2023-01-15T15:50:31;7.40;99.90
51567;DHT22;37657;53.182;5.638;2023-01-15T15:52:57;7.40;99.90
51567;DHT22;37657;53.182;5.638;2023-01-15T15:55:26;7.40;99.90
51567;DHT22;37657;53.182;5.638;2023-01-15T15:57:59;7.30;99.90
51567;DHT22;37657;53.182;5.638;2023-01-15T16:00:34;7.30;99.90
51567;DHT22;37657;53.182;5.638;2023-01-15T16:03:04;7.20;99.90
51567;DHT22;37657;53.182;5.638;2023-01-15T16:05:31;7.10;99.90
51567;DHT22;37657;53.182;5.638;2023-01-15T16:08:15;7.10;99.90
51567;DHT22;37657;53.182;5.638;2023-01-15T16:10:41;7.10;99.90
51567;DHT22;37657;53.182;5.638;2023-01-15T16:13:20;7.10;99.90
51567;DHT22;37657;53.182;5.638;2023-01-15T16:15:46;7.20;99.90
51567;DHT22;37657;53.182;5.638;2023-01-15T16:18:26;7.20;99.90
51567;DHT22;37657;53.182;5.638;2023-01-15T16:20:52;7.20;99.90
51567;DHT22;37657;53.182;5.638;2023-01-15T16:23:21;7.20;99.90
51567;DHT22;37657;53.182;5.638;2023-01-15T16:25:57;7.20;99.90
51567;DHT22;37657;53.182;5.638;2023-01-15T16:28:25;7.10;99.90
51567;DHT22;37657;53.182;5.638;2023-01-15T16:30:56;7.20;99.90
51567;DHT22;37657;53.182;5.638;2023-01-15T16:33:22;7.20;99.90
51567;DHT22;37657;53.182;5.638;2023-01-15T16:35:54;7.10;99.90
51567;DHT22;37657;53.182;5.638;2023-01-15T16:38:20;7.10;99.90
51567;DHT22;37657;53.182;5.638;2023-01-15T16:40:46;7.10;99.90
51567;DHT22;37657;53.182;5.638;2023-01-15T16:43:18;7.20;99.90
51567;DHT22;37657;53.182;5.638;2023-01-15T16:46:00;7.20;99.90
51567;DHT22;37657;53.182;5.638;2023-01-15T16:48:32;7.20;99.90
51567;DHT22;37657;53.182;5.638;2023-01-15T16:53:49;7.20;99.90
51567;DHT22;37657;53.182;5.638;2023-01-15T16:59:04;7.20;99.90
51567;DHT22;37657;53.182;5.638;2023-01-15T17:01:40;7.20;99.90
51567;DHT22;37657;53.182;5.638;2023-01-15T17:04:19;7.10;99.90
51567;DHT22;37657;53.182;5.638;2023-01-15T17:06:58;7.10;99.90
51567;DHT22;37657;53.182;5.638;2023-01-15T17:09:24;7.10;99.90
51567;DHT22;37657;53.182;5.638;2023-01-15T17:11:51;7.00;99.90
51567;DHT22;37657;53.182;5.638;2023-01-15T17:14:22;6.90;99.90
51567;DHT22;37657;53.182;5.638;2023-01-15T17:16:48;7.00;99.90
51567;DHT22;37657;53.182;5.638;2023-01-15T17:19:32;7.00;99.90
51567;DHT22;37657;53.182;5.638;2023-01-15T17:21:57;6.90;99.90
51567;DHT22;37657;53.182;5.638;2023-01-15T17:24:23;6.90;99.90
51567;DHT22;37657;53.182;5.638;2023-01-15T17:26:48;6.80;99.90
51567;DHT22;37657;53.182;5.638;2023-01-15T17:29:14;6.90;99.90
51567;DHT22;37657;53.182;5.638;2023-01-15T17:31:39;6.80;99.90
51567;DHT22;37657;53.182;5.638;2023-01-15T17:34:09;6.80;99.90
51567;DHT22;37657;53.182;5.638;2023-01-15T17:36:34;6.80;99.90
51567;DHT22;37657;53.182;5.638;2023-01-15T17:39:00;6.80;99.90
51567;DHT22;37657;53.182;5.638;2023-01-15T17:41:25;6.70;99.90
51567;DHT22;37657;53.182;5.638;2023-01-15T17:43:51;6.60;99.90
51567;DHT22;37657;53.182;5.638;2023-01-15T17:46:17;6.50;99.90
51567;DHT22;37657;53.182;5.638;2023-01-15T17:48:42;6.50;99.90
51567;DHT22;37657;53.182;5.638;2023-01-15T17:51:11;6.40;99.90
51567;DHT22;37657;53.182;5.638;2023-01-15T17:53:38;6.30;99.90
51567;DHT22;37657;53.182;5.638;2023-01-15T17:56:04;6.20;99.90
51567;DHT22;37657;53.182;5.638;2023-01-15T17:58:49;6.20;99.90
51567;DHT22;37657;53.182;5.638;2023-01-15T18:01:38;6.20;99.90
51567;DHT22;37657;53.182;5.638;2023-01-15T18:07:44;6.30;99.90
51567;DHT22;37657;53.182;5.638;2023-01-15T18:10:12;6.40;99.90
51567;DHT22;37657;53.182;5.638;2023-01-15T18:12:43;6.40;99.90
51567;DHT22;37657;53.182;5.638;2023-01-15T18:15:09;6.50;99.90
51567;DHT22;37657;53.182;5.638;2023-01-15T18:17:34;6.60;99.90
51567;DHT22;37657;53.182;5.638;2023-01-15T18:20:00;6.60;99.90
51567;DHT22;37657;53.182;5.638;2023-01-15T18:22:25;6.60;99.90